Time;durP1;ratioP1;P1;durP2;ratioP2;P2;SDS_P1;SDS_P2;PMS_P1;PMS_P2;Temp;Humidity;BMP_temperature;BMP_pressure;BME280_temperature;BME280_humidity;BME280_pressure;Samples;Min_cycle;Max_cycle;Signal;HPM_P1;HPM_P2
2022/12/16 00:01:24;;;;;;;111.63;57.85;;;-2.90;99.90;;;;;;6181903;23;20194;-82
2022/12/16 00:03:54;;;;;;;102.43;55.60;;;-2.80;99.90;;;;;;6178883;23;20453;-81
2022/12/16 00:06:23;;;;;;;104.38;54.90;;;-2.70;99.90;;;;;;6169589;23;20173;-82
2022/12/16 00:08:52;;;;;;;103.93;57.42;;;-2.70;99.90;;;;;;6167355;23;20240;-83
2022/12/16 00:11:20;;;;;;;103.40;55.58;;;-2.80;99.90;;;;;;6166238;23;20236;-83
2022/12/16 00:13:48;;;;;;;103.32;56.20;;;-2.80;99.90;;;;;;6166330;23;20177;-84
2022/12/16 00:16:18;;;;;;;92.95;54.40;;;-2.70;99.90;;;;;;6165726;23;20203;-83
2022/12/16 00:18:46;;;;;;;115.13;57.42;;;-2.80;99.90;;;;;;6166163;23;20215;-84
2022/12/16 00:21:17;;;;;;;111.68;55.47;;;-2.80;99.90;;;;;;6139493;23;20192;-80
2022/12/16 00:23:46;;;;;;;92.13;53.95;;;-2.60;99.90;;;;;;6138532;23;20738;-84
2022/12/16 00:26:13;;;;;;;111.45;59.40;;;-2.90;99.90;;;;;;6167335;23;20185;-82
2022/12/16 00:28:42;;;;;;;111.63;57.17;;;-2.80;99.90;;;;;;6116822;23;20239;-84
2022/12/16 00:31:10;;;;;;;104.00;55.67;;;-2.80;99.90;;;;;;6164935;23;20261;-81
2022/12/16 00:33:37;;;;;;;114.38;59.53;;;-2.80;99.90;;;;;;6136116;23;20195;-82
2022/12/16 00:36:04;;;;;;;117.55;58.85;;;-3.00;99.90;;;;;;6162284;23;20197;-81
2022/12/16 00:38:31;;;;;;;112.45;55.70;;;-2.90;99.90;;;;;;6161753;23;20834;-78
2022/12/16 00:40:58;;;;;;;103.15;57.00;;;-2.90;99.90;;;;;;6162029;23;20181;-81
2022/12/16 00:43:25;;;;;;;109.57;58.42;;;-2.90;99.90;;;;;;6162053;23;20758;-83
2022/12/16 00:45:52;;;;;;;100.28;58.60;;;-2.90;99.90;;;;;;6161400;23;20236;-79
2022/12/16 00:48:24;;;;;;;108.72;59.97;;;-2.90;99.90;;;;;;6161947;23;20509;-84
2022/12/16 00:50:52;;;;;;;108.57;56.83;;;-2.90;99.90;;;;;;6161637;23;20709;-81
2022/12/16 00:53:23;;;;;;;103.70;57.05;;;-2.90;99.90;;;;;;6163163;23;20169;-81
2022/12/16 00:55:51;;;;;;;105.60;57.35;;;-2.90;99.90;;;;;;6166691;23;20208;-80
2022/12/16 00:58:19;;;;;;;108.38;58.13;;;-2.80;99.90;;;;;;6163480;23;20181;-82
2022/12/16 01:00:46;;;;;;;125.45;57.28;;;-2.80;99.90;;;;;;6137104;23;20247;-82
2022/12/16 01:03:13;;;;;;;96.38;53.28;;;-2.80;99.90;;;;;;6136179;23;20244;-83
2022/12/16 01:05:47;;;;;;;88.78;49.20;;;-2.80;99.90;;;;;;6137593;23;20491;-82
2022/12/16 01:08:14;;;;;;;101.30;53.92;;;-2.80;99.90;;;;;;6161400;23;20408;-82
2022/12/16 01:10:41;;;;;;;97.25;55.33;;;-2.90;99.90;;;;;;6134132;23;20299;-82
2022/12/16 01:13:08;;;;;;;98.05;50.30;;;-2.90;99.90;;;;;;6160361;23;20181;-84
2022/12/16 01:15:36;;;;;;;92.55;50.00;;;-2.90;99.90;;;;;;6158481;23;20220;-82
2022/12/16 01:18:03;;;;;;;86.97;51.78;;;-2.90;99.90;;;;;;6159283;23;20188;-80
2022/12/16 01:20:32;;;;;;;79.22;47.28;;;-2.90;99.90;;;;;;6162546;23;20189;-81
2022/12/16 01:22:59;;;;;;;85.10;48.85;;;-2.90;99.90;;;;;;6159772;23;20185;-82
2022/12/16 01:25:26;;;;;;;96.50;50.53;;;-2.80;99.90;;;;;;6134515;23;20189;-80
2022/12/16 01:27:53;;;;;;;85.30;50.13;;;-2.70;99.90;;;;;;6160185;23;20177;-82
2022/12/16 01:30:22;;;;;;;91.20;49.88;;;-2.70;99.90;;;;;;6160922;23;20268;-82
2022/12/16 01:32:49;;;;;;;81.60;45.47;;;-2.70;99.90;;;;;;6135109;23;20181;-79
2022/12/16 01:35:16;;;;;;;72.50;42.97;;;-2.70;99.90;;;;;;6161458;23;20250;-83
2022/12/16 01:38:03;;;;;;;74.97;43.90;;;-2.60;99.90;;;;;;6160162;23;20512;-82
2022/12/16 01:40:30;;;;;;;69.00;39.83;;;-2.60;99.90;;;;;;6159038;23;20452;-84
2022/12/16 01:42:57;;;;;;;80.15;42.85;;;-2.60;99.90;;;;;;6159364;23;20228;-82
2022/12/16 01:45:28;;;;;;;73.15;39.65;;;-2.60;99.90;;;;;;6160322;23;20228;-85
2022/12/16 01:48:00;;;;;;;77.40;45.13;;;-2.70;99.90;;;;;;6135330;23;20172;-77
2022/12/16 01:50:29;;;;;;;83.88;40.58;;;-2.70;99.90;;;;;;6161172;23;20468;-83
2022/12/16 01:52:59;;;;;;;65.13;36.80;;;-2.70;99.90;;;;;;6162078;23;20218;-82
2022/12/16 01:55:43;;;;;;;73.68;40.30;;;-2.50;99.90;;;;;;6160171;23;20191;-80
2022/12/16 01:58:19;;;;;;;72.05;41.45;;;-2.50;99.90;;;;;;6161435;23;20165;-82
2022/12/16 02:00:46;;;;;;;77.53;40.78;;;-2.30;99.90;;;;;;6161794;23;20184;-82
2022/12/16 02:03:14;;;;;;;61.38;39.00;;;-2.40;99.90;;;;;;6162337;23;20578;-81
2022/12/16 02:05:43;;;;;;;66.60;41.38;;;-2.40;99.90;;;;;;6162336;23;20181;-82
2022/12/16 02:08:17;;;;;;;67.32;40.15;;;-2.40;99.90;;;;;;6136502;23;20284;-83
2022/12/16 02:11:03;;;;;;;65.28;37.65;;;-2.50;99.90;;;;;;6161482;23;20432;-82
2022/12/16 02:13:57;;;;;;;67.72;40.70;;;-2.40;99.90;;;;;;6162706;23;20173;-82
2022/12/16 02:16:46;;;;;;;64.13;39.83;;;-2.40;99.90;;;;;;6162276;23;20244;-82
2022/12/16 02:19:47;;;;;;;74.10;43.13;;;-2.50;99.90;;;;;;6160962;23;20364;-80
2022/12/16 02:22:43;;;;;;;73.05;42.50;;;-2.40;99.90;;;;;;6161976;23;20240;-79
2022/12/16 02:25:26;;;;;;;59.67;38.20;;;-2.20;99.90;;;;;;6136268;23;20170;-83
2022/12/16 02:28:18;;;;;;;70.60;41.28;;;-2.40;99.90;;;;;;6162024;23;20398;-81
2022/12/16 02:31:05;;;;;;;68.32;39.47;;;-2.30;99.90;;;;;;6161740;23;20234;-77
2022/12/16 02:33:54;;;;;;;72.30;42.95;;;-2.40;99.90;;;;;;6164638;23;20377;-80
2022/12/16 02:36:43;;;;;;;81.50;42.80;;;-2.40;99.90;;;;;;6162234;23;20231;-82
2022/12/16 02:39:20;;;;;;;65.88;41.63;;;-2.30;99.90;;;;;;6162444;23;20174;-85
2022/12/16 02:42:00;;;;;;;73.13;43.95;;;-2.20;99.90;;;;;;6162822;23;20169;-83
2022/12/16 02:44:43;;;;;;;84.30;47.20;;;-2.20;99.90;;;;;;6161704;23;20727;-84
2022/12/16 02:47:10;;;;;;;79.20;45.70;;;-2.20;99.90;;;;;;6141123;23;20189;-81
2022/12/16 02:49:49;;;;;;;71.68;41.80;;;-2.20;99.90;;;;;;6136944;23;20574;-81
2022/12/16 02:52:19;;;;;;;83.63;45.75;;;-2.30;99.90;;;;;;6161352;23;20165;-85
2022/12/16 02:54:48;;;;;;;94.40;46.80;;;-2.30;99.90;;;;;;6163682;23;20217;-83
2022/12/16 02:57:22;;;;;;;74.95;42.25;;;-2.50;99.90;;;;;;6162552;23;20427;-82
2022/12/16 03:00:13;;;;;;;71.53;44.05;;;-2.30;99.90;;;;;;6164851;23;20345;-85
2022/12/16 03:02:52;;;;;;;83.93;47.03;;;-2.20;99.90;;;;;;6173391;23;20160;-83
2022/12/16 03:05:44;;;;;;;75.97;42.83;;;-2.10;99.90;;;;;;6165497;23;20161;-83
2022/12/16 03:08:22;;;;;;;69.50;40.15;;;-2.10;99.90;;;;;;6139747;23;20172;-83
2022/12/16 03:10:54;;;;;;;72.57;42.92;;;-2.00;99.90;;;;;;6163344;23;20507;-81
2022/12/16 03:13:21;;;;;;;64.68;39.17;;;-2.10;99.90;;;;;;6161998;23;20235;-82
2022/12/16 03:15:52;;;;;;;74.18;41.88;;;-2.10;99.90;;;;;;6137077;23;20232;-81
2022/12/16 03:18:20;;;;;;;70.28;41.30;;;-2.10;99.90;;;;;;6162774;23;20245;-79
2022/12/16 03:21:01;;;;;;;61.60;39.35;;;-2.30;99.90;;;;;;6161240;23;20673;-83
2022/12/16 03:23:34;;;;;;;72.10;42.30;;;-2.20;99.90;;;;;;6160150;23;20423;-81
2022/12/16 03:26:07;;;;;;;65.57;40.22;;;-2.30;99.90;;;;;;6161905;23;20211;-83
2022/12/16 03:28:46;;;;;;;79.47;39.60;;;-2.30;99.90;;;;;;6161428;23;20369;-81
2022/12/16 03:31:37;;;;;;;66.93;42.55;;;-2.20;99.90;;;;;;6137432;23;20165;-83
2022/12/16 03:34:13;;;;;;;70.60;39.55;;;-2.10;99.90;;;;;;6162081;23;20232;-82
2022/12/16 03:36:42;;;;;;;69.75;39.97;;;-2.10;99.90;;;;;;6162432;23;20184;-79
2022/12/16 03:39:09;;;;;;;66.00;38.55;;;-2.20;99.90;;;;;;6134499;23;20185;-78
2022/12/16 03:41:37;;;;;;;69.47;42.42;;;-2.20;99.90;;;;;;6158851;23;20232;-82
2022/12/16 03:44:07;;;;;;;66.28;41.63;;;-2.20;99.90;;;;;;6159865;23;20417;-81
2022/12/16 03:46:34;;;;;;;66.40;37.70;;;-2.20;99.90;;;;;;6159542;23;20732;-78
2022/12/16 03:49:01;;;;;;;59.70;41.00;;;-2.10;99.90;;;;;;6161249;23;20181;-81
2022/12/16 03:51:28;;;;;;;72.80;40.08;;;-2.10;99.90;;;;;;6161626;23;20177;-82
2022/12/16 03:53:55;;;;;;;60.45;37.25;;;-2.10;99.90;;;;;;6160935;23;20200;-81
2022/12/16 03:56:22;;;;;;;74.32;43.60;;;-2.10;99.90;;;;;;6160933;23;20201;-80
2022/12/16 03:58:49;;;;;;;63.83;37.20;;;-2.10;99.90;;;;;;6161321;23;20239;-82
2022/12/16 04:01:16;;;;;;;63.20;40.78;;;-2.10;99.90;;;;;;6162249;23;20709;-82
2022/12/16 04:03:42;;;;;;;71.53;40.72;;;-2.00;99.90;;;;;;6135421;23;20177;-81
2022/12/16 04:06:09;;;;;;;62.40;36.80;;;-2.00;99.90;;;;;;6136276;23;20196;-80
2022/12/16 04:08:36;;;;;;;64.10;38.40;;;-2.10;99.90;;;;;;6161567;23;20181;-79
2022/12/16 04:25:27;;;;;;;55.08;35.92;;;-1.90;99.90;;;;;;6164807;23;20185;-84
2022/12/16 04:27:54;;;;;;;67.22;39.00;;;-1.90;99.90;;;;;;6152453;23;20208;-82
2022/12/16 04:30:20;;;;;;;69.15;40.22;;;-1.90;99.90;;;;;;6180820;23;20177;-84
